sensor_id;sensor_type;location;lat;lon;timestamp;pressure;altitude;pressure_sealevel;temperature;humidity
64698;BME280;51124;53.394;-6.294;2022-09-09T00:02:21;99893.83;;;24.51;13.56
64698;BME280;51124;53.394;-6.294;2022-09-09T00:04:52;99890.54;;;24.17;13.68
64698;BME280;51124;53.394;-6.294;2022-09-09T00:07:25;99894.49;;;24.94;13.37
64698;BME280;51124;53.394;-6.294;2022-09-09T00:10:00;99895.61;;;24.80;13.50
64698;BME280;51124;53.394;-6.294;2022-09-09T00:12:24;99899.14;;;23.67;13.83
64698;BME280;51124;53.394;-6.294;2022-09-09T00:14:53;99904.50;;;24.02;13.61
64698;BME280;51124;53.394;-6.294;2022-09-09T00:17:30;99901.64;;;24.83;13.51
64698;BME280;51124;53.394;-6.294;2022-09-09T00:19:49;99898.49;;;24.65;13.54
64698;BME280;51124;53.394;-6.294;2022-09-09T00:22:16;99904.47;;;24.11;13.69
64698;BME280;51124;53.394;-6.294;2022-09-09T00:24:43;99899.50;;;23.82;13.42
64698;BME280;51124;53.394;-6.294;2022-09-09T00:27:13;99902.77;;;21.55;13.12
64698;BME280;51124;53.394;-6.294;2022-09-09T00:29:43;99895.87;;;21.36;12.36
64698;BME280;51124;53.394;-6.294;2022-09-09T00:32:13;99894.32;;;22.50;12.02
64698;BME280;51124;53.394;-6.294;2022-09-09T00:34:39;99890.91;;;21.94;11.82
64698;BME280;51124;53.394;-6.294;2022-09-09T00:37:08;99887.58;;;22.37;11.25
64698;BME280;51124;53.394;-6.294;2022-09-09T00:39:36;99882.93;;;21.76;11.40
64698;BME280;51124;53.394;-6.294;2022-09-09T00:42:13;99881.77;;;22.18;11.36
64698;BME280;51124;53.394;-6.294;2022-09-09T00:44:31;99883.20;;;22.51;10.92
64698;BME280;51124;53.394;-6.294;2022-09-09T00:47:03;99878.19;;;23.18;10.75
64698;BME280;51124;53.394;-6.294;2022-09-09T00:49:37;99879.27;;;22.39;10.95
64698;BME280;51124;53.394;-6.294;2022-09-09T00:52:00;99877.96;;;22.91;10.66
64698;BME280;51124;53.394;-6.294;2022-09-09T00:54:28;99873.39;;;22.53;10.70
64698;BME280;51124;53.394;-6.294;2022-09-09T00:56:50;99872.28;;;22.10;10.68
64698;BME280;51124;53.394;-6.294;2022-09-09T00:59:30;99866.40;;;22.55;10.48
64698;BME280;51124;53.394;-6.294;2022-09-09T01:01:45;99865.97;;;22.61;10.51
64698;BME280;51124;53.394;-6.294;2022-09-09T01:04:23;99866.97;;;23.01;10.37
64698;BME280;51124;53.394;-6.294;2022-09-09T01:06:52;99864.81;;;23.33;10.35
64698;BME280;51124;53.394;-6.294;2022-09-09T01:09:22;99867.39;;;22.28;10.33
64698;BME280;51124;53.394;-6.294;2022-09-09T01:11:52;99867.77;;;22.61;10.26
64698;BME280;51124;53.394;-6.294;2022-09-09T01:14:29;99867.34;;;23.04;10.26
64698;BME280;51124;53.394;-6.294;2022-09-09T01:16:58;99870.91;;;22.32;10.43
64698;BME280;51124;53.394;-6.294;2022-09-09T01:19:33;99867.10;;;22.77;10.34
64698;BME280;51124;53.394;-6.294;2022-09-09T01:21:56;99869.36;;;22.13;10.57
64698;BME280;51124;53.394;-6.294;2022-09-09T01:24:22;99868.49;;;22.55;10.40
64698;BME280;51124;53.394;-6.294;2022-09-09T01:26:48;99867.24;;;22.28;10.31
64698;BME280;51124;53.394;-6.294;2022-09-09T01:29:15;99864.88;;;23.05;10.19
64698;BME280;51124;53.394;-6.294;2022-09-09T01:31:40;99869.64;;;21.01;10.72
64698;BME280;51124;53.394;-6.294;2022-09-09T01:34:09;99867.22;;;22.74;10.22
64698;BME280;51124;53.394;-6.294;2022-09-09T01:36:38;99869.20;;;22.11;10.33
64698;BME280;51124;53.394;-6.294;2022-09-09T01:39:04;99865.41;;;22.98;10.29
64698;BME280;51124;53.394;-6.294;2022-09-09T01:41:38;99871.99;;;23.30;10.03
64698;BME280;51124;53.394;-6.294;2022-09-09T01:44:12;99868.72;;;22.53;10.17
64698;BME280;51124;53.394;-6.294;2022-09-09T01:46:47;99869.74;;;22.49;10.40
64698;BME280;51124;53.394;-6.294;2022-09-09T01:49:20;99872.91;;;22.71;10.42
64698;BME280;51124;53.394;-6.294;2022-09-09T01:51:56;99867.61;;;22.47;10.47
64698;BME280;51124;53.394;-6.294;2022-09-09T01:54:21;99868.12;;;22.32;10.34
64698;BME280;51124;53.394;-6.294;2022-09-09T01:56:54;99867.26;;;23.39;10.26
64698;BME280;51124;53.394;-6.294;2022-09-09T01:59:24;99867.78;;;22.67;10.41
64698;BME280;51124;53.394;-6.294;2022-09-09T02:02:01;99863.58;;;21.67;10.33
64698;BME280;51124;53.394;-6.294;2022-09-09T02:04:27;99866.40;;;21.03;10.54
64698;BME280;51124;53.394;-6.294;2022-09-09T02:06:46;99866.22;;;22.49;10.19
64698;BME280;51124;53.394;-6.294;2022-09-09T02:09:12;99863.79;;;21.83;10.38
64698;BME280;51124;53.394;-6.294;2022-09-09T02:11:47;99859.26;;;24.70;10.29
64698;BME280;51124;53.394;-6.294;2022-09-09T02:14:19;99863.54;;;24.48;10.96
64698;BME280;51124;53.394;-6.294;2022-09-09T02:16:49;99864.96;;;22.77;11.22
64698;BME280;51124;53.394;-6.294;2022-09-09T02:19:18;99868.36;;;23.24;11.46
64698;BME280;51124;53.394;-6.294;2022-09-09T02:21:45;99865.41;;;25.37;11.97
64698;BME280;51124;53.394;-6.294;2022-09-09T02:24:12;99866.92;;;25.19;12.39
64698;BME280;51124;53.394;-6.294;2022-09-09T02:26:41;99868.39;;;24.99;12.77
64698;BME280;51124;53.394;-6.294;2022-09-09T02:29:09;99875.29;;;24.83;13.00
64698;BME280;51124;53.394;-6.294;2022-09-09T02:31:37;99871.82;;;24.46;13.01
64698;BME280;51124;53.394;-6.294;2022-09-09T02:34:03;99868.61;;;24.29;13.14
64698;BME280;51124;53.394;-6.294;2022-09-09T02:36:32;99875.22;;;24.57;13.16
64698;BME280;51124;53.394;-6.294;2022-09-09T02:38:57;99871.35;;;24.45;13.14
64698;BME280;51124;53.394;-6.294;2022-09-09T02:41:34;99875.50;;;23.75;13.57
64698;BME280;51124;53.394;-6.294;2022-09-09T02:43:58;99869.45;;;24.18;13.31
64698;BME280;51124;53.394;-6.294;2022-09-09T02:46:44;99872.75;;;25.08;13.11
64698;BME280;51124;53.394;-6.294;2022-09-09T02:49:04;99876.19;;;24.24;13.44
64698;BME280;51124;53.394;-6.294;2022-09-09T02:51:35;99872.96;;;23.90;13.61
64698;BME280;51124;53.394;-6.294;2022-09-09T02:54:10;99871.29;;;23.55;13.70
64698;BME280;51124;53.394;-6.294;2022-09-09T02:56:40;99869.20;;;24.25;13.62
64698;BME280;51124;53.394;-6.294;2022-09-09T02:59:07;99856.50;;;24.17;13.61
64698;BME280;51124;53.394;-6.294;2022-09-09T03:01:41;99851.14;;;24.62;13.32
64698;BME280;51124;53.394;-6.294;2022-09-09T03:04:15;99851.21;;;24.60;13.41
64698;BME280;51124;53.394;-6.294;2022-09-09T03:06:50;99852.76;;;22.89;14.05
64698;BME280;51124;53.394;-6.294;2022-09-09T03:09:24;99848.45;;;24.93;13.33
64698;BME280;51124;53.394;-6.294;2022-09-09T03:11:58;99842.34;;;20.84;13.64
64698;BME280;51124;53.394;-6.294;2022-09-09T03:14:32;99852.86;;;20.47;12.80
64698;BME280;51124;53.394;-6.294;2022-09-09T03:17:06;99842.06;;;22.00;12.18
64698;BME280;51124;53.394;-6.294;2022-09-09T03:19:40;99845.08;;;21.37;11.88
64698;BME280;51124;53.394;-6.294;2022-09-09T03:22:14;99843.13;;;21.12;11.55
64698;BME280;51124;53.394;-6.294;2022-09-09T03:24:48;99847.21;;;21.07;11.63
64698;BME280;51124;53.394;-6.294;2022-09-09T03:27:22;99846.18;;;21.35;11.20
64698;BME280;51124;53.394;-6.294;2022-09-09T03:29:55;99846.72;;;22.00;10.95
64698;BME280;51124;53.394;-6.294;2022-09-09T03:32:29;99844.44;;;21.89;10.81
64698;BME280;51124;53.394;-6.294;2022-09-09T03:35:03;99845.46;;;21.56;10.91
64698;BME280;51124;53.394;-6.294;2022-09-09T03:37:37;99842.03;;;22.46;10.50
64698;BME280;51124;53.394;-6.294;2022-09-09T03:40:11;99841.85;;;22.10;10.64
64698;BME280;51124;53.394;-6.294;2022-09-09T03:42:45;99848.57;;;20.78;10.87
64698;BME280;51124;53.394;-6.294;2022-09-09T03:45:19;99845.38;;;21.97;10.61
64698;BME280;51124;53.394;-6.294;2022-09-09T03:47:53;99848.52;;;21.28;10.55
64698;BME280;51124;53.394;-6.294;2022-09-09T03:50:26;99847.83;;;22.68;10.31
64698;BME280;51124;53.394;-6.294;2022-09-09T03:53:00;99845.07;;;21.68;10.25
64698;BME280;51124;53.394;-6.294;2022-09-09T03:55:33;99848.32;;;22.75;10.13
64698;BME280;51124;53.394;-6.294;2022-09-09T03:58:07;99846.15;;;22.48;10.22
64698;BME280;51124;53.394;-6.294;2022-09-09T04:00:41;99846.67;;;21.51;10.56
64698;BME280;51124;53.394;-6.294;2022-09-09T04:03:15;99844.01;;;20.52;10.73
64698;BME280;51124;53.394;-6.294;2022-09-09T04:05:49;99850.78;;;22.32;10.17
64698;BME280;51124;53.394;-6.294;2022-09-09T04:08:23;99850.82;;;21.37;10.67
64698;BME280;51124;53.394;-6.294;2022-09-09T04:10:57;99850.92;;;22.26;10.30
64698;BME280;51124;53.394;-6.294;2022-09-09T04:13:31;99853.15;;;22.50;10.22
64698;BME280;51124;53.394;-6.294;2022-09-09T04:16:05;99853.75;;;22.02;10.28
64698;BME280;51124;53.394;-6.294;2022-09-09T04:18:39;99848.51;;;21.37;10.53
64698;BME280;51124;53.394;-6.294;2022-09-09T04:21:12;99849.18;;;21.81;10.40
64698;BME280;51124;53.394;-6.294;2022-09-09T04:23:46;99856.05;;;21.82;10.26
64698;BME280;51124;53.394;-6.294;2022-09-09T04:26:20;99861.80;;;22.16;10.35
64698;BME280;51124;53.394;-6.294;2022-09-09T04:28:53;99858.59;;;21.70;10.50
64698;BME280;51124;53.394;-6.294;2022-09-09T04:31:27;99860.73;;;22.57;10.50
64698;BME280;51124;53.394;-6.294;2022-09-09T04:34:01;99856.76;;;21.65;10.52
64698;BME280;51124;53.394;-6.294;2022-09-09T04:36:34;99857.86;;;22.03;10.25
64698;BME280;51124;53.394;-6.294;2022-09-09T04:39:08;99855.79;;;21.93;10.51
64698;BME280;51124;53.394;-6.294;2022-09-09T04:41:42;99855.91;;;22.21;10.31
64698;BME280;51124;53.394;-6.294;2022-09-09T04:44:15;99861.68;;;22.61;10.29
64698;BME280;51124;53.394;-6.294;2022-09-09T04:46:49;99860.49;;;22.51;10.22
64698;BME280;51124;53.394;-6.294;2022-09-09T04:49:23;99865.09;;;21.46;10.24
64698;BME280;51124;53.394;-6.294;2022-09-09T04:51:56;99862.98;;;21.63;10.38
64698;BME280;51124;53.394;-6.294;2022-09-09T04:54:30;99858.21;;;21.76;10.21
64698;BME280;51124;53.394;-6.294;2022-09-09T04:57:04;99853.61;;;23.97;10.34
64698;BME280;51124;53.394;-6.294;2022-09-09T04:59:38;99861.93;;;23.80;10.92
64698;BME280;51124;53.394;-6.294;2022-09-09T05:02:12;99853.25;;;22.25;11.03
64698;BME280;51124;53.394;-6.294;2022-09-09T05:04:46;99855.50;;;23.91;11.52
64698;BME280;51124;53.394;-6.294;2022-09-09T05:07:20;99863.92;;;24.67;12.07
64698;BME280;51124;53.394;-6.294;2022-09-09T05:09:54;99869.12;;;24.85;12.30
64698;BME280;51124;53.394;-6.294;2022-09-09T05:12:28;99873.65;;;23.45;13.13
64698;BME280;51124;53.394;-6.294;2022-09-09T05:15:03;99867.60;;;23.37;13.08
64698;BME280;51124;53.394;-6.294;2022-09-09T05:17:37;99871.87;;;24.28;13.10
64698;BME280;51124;53.394;-6.294;2022-09-09T05:20:11;99876.72;;;24.12;13.27
64698;BME280;51124;53.394;-6.294;2022-09-09T05:22:45;99881.18;;;23.40;13.63
64698;BME280;51124;53.394;-6.294;2022-09-09T05:25:20;99879.70;;;24.00;13.38
64698;BME280;51124;53.394;-6.294;2022-09-09T05:27:54;99881.30;;;23.29;13.61
64698;BME280;51124;53.394;-6.294;2022-09-09T05:30:29;99879.97;;;23.61;13.43
64698;BME280;51124;53.394;-6.294;2022-09-09T05:33:03;99882.66;;;23.92;13.47
64698;BME280;51124;53.394;-6.294;2022-09-09T05:35:37;99885.67;;;23.18;13.74
64698;BME280;51124;53.394;-6.294;2022-09-09T05:38:11;99884.41;;;24.74;13.25
64698;BME280;51124;53.394;-6.294;2022-09-09T05:40:47;99891.62;;;23.33;13.78
64698;BME280;51124;53.394;-6.294;2022-09-09T05:43:11;99890.73;;;23.73;13.62
64698;BME280;51124;53.394;-6.294;2022-09-09T05:45:45;99891.63;;;24.45;13.30
64698;BME280;51124;53.394;-6.294;2022-09-09T05:48:20;99894.65;;;24.08;13.54
64698;BME280;51124;53.394;-6.294;2022-09-09T05:50:54;99894.11;;;24.11;13.43
64698;BME280;51124;53.394;-6.294;2022-09-09T05:53:29;99905.13;;;23.56;13.66
64698;BME280;51124;53.394;-6.294;2022-09-09T05:56:05;99907.74;;;21.02;13.64
64698;BME280;51124;53.394;-6.294;2022-09-09T05:58:29;99913.40;;;21.20;12.68
64698;BME280;51124;53.394;-6.294;2022-09-09T06:01:05;99911.07;;;21.83;12.12
64698;BME280;51124;53.394;-6.294;2022-09-09T06:03:29;99910.47;;;21.85;11.79
64698;BME280;51124;53.394;-6.294;2022-09-09T06:06:04;99913.91;;;21.11;11.75
64698;BME280;51124;53.394;-6.294;2022-09-09T06:08:28;99906.36;;;21.68;11.50
64698;BME280;51124;53.394;-6.294;2022-09-09T06:11:03;99914.88;;;20.97;11.31
64698;BME280;51124;53.394;-6.294;2022-09-09T06:13:27;99916.47;;;21.82;10.95
64698;BME280;51124;53.394;-6.294;2022-09-09T06:16:01;99915.98;;;20.92;11.12
64698;BME280;51124;53.394;-6.294;2022-09-09T06:18:34;99915.03;;;21.69;10.79
64698;BME280;51124;53.394;-6.294;2022-09-09T06:21:11;99915.62;;;21.79;10.84
64698;BME280;51124;53.394;-6.294;2022-09-09T06:23:37;99920.52;;;21.30;10.84
64698;BME280;51124;53.394;-6.294;2022-09-09T06:26:04;99924.25;;;21.60;10.65
64698;BME280;51124;53.394;-6.294;2022-09-09T06:28:28;99932.15;;;21.30;10.83
64698;BME280;51124;53.394;-6.294;2022-09-09T06:31:03;99932.84;;;22.16;10.37
64698;BME280;51124;53.394;-6.294;2022-09-09T06:33:31;99937.85;;;21.84;10.40
64698;BME280;51124;53.394;-6.294;2022-09-09T06:35:54;99938.09;;;21.37;10.54
64698;BME280;51124;53.394;-6.294;2022-09-09T06:38:28;99940.31;;;21.55;10.29
64698;BME280;51124;53.394;-6.294;2022-09-09T06:41:02;99944.81;;;22.26;10.25
64698;BME280;51124;53.394;-6.294;2022-09-09T06:43:35;99950.00;;;21.11;10.61
64698;BME280;51124;53.394;-6.294;2022-09-09T06:46:11;99952.00;;;22.49;10.26
64698;BME280;51124;53.394;-6.294;2022-09-09T06:48:35;99962.54;;;22.16;10.39
64698;BME280;51124;53.394;-6.294;2022-09-09T06:51:11;99958.34;;;22.26;10.35
64698;BME280;51124;53.394;-6.294;2022-09-09T06:53:36;99960.28;;;20.73;10.65
64698;BME280;51124;53.394;-6.294;2022-09-09T06:56:20;99961.65;;;21.47;10.54
64698;BME280;51124;53.394;-6.294;2022-09-09T06:58:44;99965.34;;;20.51;10.78
64698;BME280;51124;53.394;-6.294;2022-09-09T07:01:20;99971.53;;;20.29;11.01
64698;BME280;51124;53.394;-6.294;2022-09-09T07:03:48;99977.06;;;19.32;11.36
64698;BME280;51124;53.394;-6.294;2022-09-09T07:06:14;99978.00;;;20.54;11.04
64698;BME280;51124;53.394;-6.294;2022-09-09T07:08:38;99983.93;;;20.94;10.74
64698;BME280;51124;53.394;-6.294;2022-09-09T07:11:12;99991.57;;;19.61;11.23
64698;BME280;51124;53.394;-6.294;2022-09-09T07:13:46;99991.82;;;21.42;10.64
64698;BME280;51124;53.394;-6.294;2022-09-09T07:16:21;99994.76;;;21.09;10.80
64698;BME280;51124;53.394;-6.294;2022-09-09T07:18:55;99993.84;;;21.03;10.77
64698;BME280;51124;53.394;-6.294;2022-09-09T07:21:30;99999.95;;;20.73;10.73
64698;BME280;51124;53.394;-6.294;2022-09-09T07:23:54;100002.60;;;22.11;10.46
64698;BME280;51124;53.394;-6.294;2022-09-09T07:26:29;100003.53;;;20.95;10.77
64698;BME280;51124;53.394;-6.294;2022-09-09T07:28:54;100015.08;;;21.92;10.61
64698;BME280;51124;53.394;-6.294;2022-09-09T07:31:29;100014.51;;;22.08;10.74
64698;BME280;51124;53.394;-6.294;2022-09-09T07:33:53;100019.01;;;21.36;10.48
64698;BME280;51124;53.394;-6.294;2022-09-09T07:36:29;100020.43;;;21.57;10.54
64698;BME280;51124;53.394;-6.294;2022-09-09T07:38:54;100023.58;;;20.96;10.66
64698;BME280;51124;53.394;-6.294;2022-09-09T07:41:19;100021.85;;;20.83;10.69
64698;BME280;51124;53.394;-6.294;2022-09-09T07:43:45;100029.75;;;23.57;10.95
64698;BME280;51124;53.394;-6.294;2022-09-09T07:46:12;100034.02;;;22.85;11.56
64698;BME280;51124;53.394;-6.294;2022-09-09T07:48:36;100032.06;;;21.65;11.52
64698;BME280;51124;53.394;-6.294;2022-09-09T07:51:13;100035.15;;;26.14;10.96
64698;BME280;51124;53.394;-6.294;2022-09-09T07:53:38;100038.56;;;26.48;11.33
64698;BME280;51124;53.394;-6.294;2022-09-09T07:56:14;100047.77;;;25.17;12.11
64698;BME280;51124;53.394;-6.294;2022-09-09T07:58:39;100051.76;;;26.07;12.12
64698;BME280;51124;53.394;-6.294;2022-09-09T08:01:08;100053.76;;;24.16;12.98
64698;BME280;51124;53.394;-6.294;2022-09-09T08:03:32;100062.43;;;23.89;13.06
64698;BME280;51124;53.394;-6.294;2022-09-09T08:06:08;100063.73;;;24.53;13.30
64698;BME280;51124;53.394;-6.294;2022-09-09T08:08:32;100073.20;;;24.10;13.34
64698;BME280;51124;53.394;-6.294;2022-09-09T08:11:09;100076.36;;;23.80;13.58
64698;BME280;51124;53.394;-6.294;2022-09-09T08:13:34;100080.75;;;25.53;12.77
64698;BME280;51124;53.394;-6.294;2022-09-09T08:16:10;100091.77;;;26.28;12.71
64698;BME280;51124;53.394;-6.294;2022-09-09T08:18:35;100089.64;;;25.68;12.75
64698;BME280;51124;53.394;-6.294;2022-09-09T08:21:11;100094.16;;;25.18;12.57
64698;BME280;51124;53.394;-6.294;2022-09-09T08:23:36;100099.06;;;23.84;13.59
64698;BME280;51124;53.394;-6.294;2022-09-09T08:26:11;100098.53;;;25.88;12.87
64698;BME280;51124;53.394;-6.294;2022-09-09T08:28:35;100106.89;;;25.26;12.92
64698;BME280;51124;53.394;-6.294;2022-09-09T08:31:12;100107.27;;;25.33;13.22
64698;BME280;51124;53.394;-6.294;2022-09-09T08:33:37;100113.54;;;25.55;13.26
64698;BME280;51124;53.394;-6.294;2022-09-09T08:36:13;100118.51;;;25.53;13.07
64698;BME280;51124;53.394;-6.294;2022-09-09T08:38:38;100117.88;;;26.13;12.78
64698;BME280;51124;53.394;-6.294;2022-09-09T08:41:35;100120.06;;;25.64;12.51
64698;BME280;51124;53.394;-6.294;2022-09-09T08:43:44;100124.21;;;23.57;12.36
64698;BME280;51124;53.394;-6.294;2022-09-09T08:46:12;100120.73;;;22.73;11.90
64698;BME280;51124;53.394;-6.294;2022-09-09T08:48:47;100115.82;;;23.34;11.44
64698;BME280;51124;53.394;-6.294;2022-09-09T08:51:04;100121.28;;;23.56;10.98
64698;BME280;51124;53.394;-6.294;2022-09-09T08:53:41;100120.24;;;24.08;10.70
64698;BME280;51124;53.394;-6.294;2022-09-09T08:56:10;100120.40;;;22.74;10.81
64698;BME280;51124;53.394;-6.294;2022-09-09T08:58:43;100127.62;;;23.79;10.31
64698;BME280;51124;53.394;-6.294;2022-09-09T09:01:21;100136.08;;;23.39;10.40
64698;BME280;51124;53.394;-6.294;2022-09-09T09:03:46;100141.77;;;24.10;10.06
64698;BME280;51124;53.394;-6.294;2022-09-09T09:06:24;100144.35;;;23.98;10.05
64698;BME280;51124;53.394;-6.294;2022-09-09T09:08:43;100151.22;;;23.37;10.24
64698;BME280;51124;53.394;-6.294;2022-09-09T09:11:10;100152.62;;;23.88;10.15
64698;BME280;51124;53.394;-6.294;2022-09-09T09:13:47;100158.53;;;24.53;9.72
64698;BME280;51124;53.394;-6.294;2022-09-09T09:16:20;100157.37;;;24.17;9.88
64698;BME280;51124;53.394;-6.294;2022-09-09T09:18:45;100161.77;;;23.77;10.03
64698;BME280;51124;53.394;-6.294;2022-09-09T09:21:24;100165.79;;;25.41;9.57
64698;BME280;51124;53.394;-6.294;2022-09-09T09:23:55;100166.30;;;23.61;10.06
64698;BME280;51124;53.394;-6.294;2022-09-09T09:26:19;100169.07;;;24.53;9.80
64698;BME280;51124;53.394;-6.294;2022-09-09T09:28:55;100173.27;;;23.46;10.04
64698;BME280;51124;53.394;-6.294;2022-09-09T09:31:20;100174.37;;;24.11;9.82
64698;BME280;51124;53.394;-6.294;2022-09-09T09:33:55;100177.17;;;24.09;9.90
64698;BME280;51124;53.394;-6.294;2022-09-09T09:36:19;100181.46;;;23.88;9.96
64698;BME280;51124;53.394;-6.294;2022-09-09T09:38:55;100184.36;;;24.66;9.72
64698;BME280;51124;53.394;-6.294;2022-09-09T09:41:29;100185.50;;;24.52;9.91
64698;BME280;51124;53.394;-6.294;2022-09-09T09:43:54;100192.57;;;24.08;9.88
64698;BME280;51124;53.394;-6.294;2022-09-09T09:46:28;100198.66;;;23.62;10.17
64698;BME280;51124;53.394;-6.294;2022-09-09T09:49:04;100202.43;;;23.58;10.04
64698;BME280;51124;53.394;-6.294;2022-09-09T09:51:29;100210.88;;;25.31;9.52
64698;BME280;51124;53.394;-6.294;2022-09-09T09:53:53;100211.80;;;24.92;9.48
64698;BME280;51124;53.394;-6.294;2022-09-09T09:56:28;100211.75;;;25.12;9.71
64698;BME280;51124;53.394;-6.294;2022-09-09T09:59:02;100214.19;;;22.27;10.37
64698;BME280;51124;53.394;-6.294;2022-09-09T10:01:36;100219.10;;;24.71;9.24
64698;BME280;51124;53.394;-6.294;2022-09-09T10:04:16;100221.36;;;23.65;9.84
64698;BME280;51124;53.394;-6.294;2022-09-09T10:06:40;100220.84;;;25.34;8.89
64698;BME280;51124;53.394;-6.294;2022-09-09T10:09:26;100226.59;;;23.74;9.46
64698;BME280;51124;53.394;-6.294;2022-09-09T10:11:46;100229.51;;;24.09;9.24
64698;BME280;51124;53.394;-6.294;2022-09-09T10:14:18;100225.70;;;25.13;9.34
64698;BME280;51124;53.394;-6.294;2022-09-09T10:16:52;100222.34;;;24.32;9.61
64698;BME280;51124;53.394;-6.294;2022-09-09T10:19:13;100227.89;;;23.77;9.76
64698;BME280;51124;53.394;-6.294;2022-09-09T10:21:48;100227.25;;;22.67;9.96
64698;BME280;51124;53.394;-6.294;2022-09-09T10:24:26;100230.72;;;24.10;9.44
64698;BME280;51124;53.394;-6.294;2022-09-09T10:26:40;100231.48;;;24.48;9.42
64698;BME280;51124;53.394;-6.294;2022-09-09T10:29:24;100234.33;;;26.82;9.30
64698;BME280;51124;53.394;-6.294;2022-09-09T10:31:50;100236.09;;;27.22;9.97
64698;BME280;51124;53.394;-6.294;2022-09-09T10:34:30;100237.33;;;25.38;10.03
64698;BME280;51124;53.394;-6.294;2022-09-09T10:36:49;100246.16;;;26.31;9.98
64698;BME280;51124;53.394;-6.294;2022-09-09T10:39:30;100246.71;;;27.99;10.62
64698;BME280;51124;53.394;-6.294;2022-09-09T10:41:54;100249.28;;;27.29;11.41
64698;BME280;51124;53.394;-6.294;2022-09-09T10:44:34;100250.79;;;27.97;11.43
64698;BME280;51124;53.394;-6.294;2022-09-09T10:47:03;100257.41;;;25.94;12.35
64698;BME280;51124;53.394;-6.294;2022-09-09T10:49:32;100258.30;;;27.37;11.87
64698;BME280;51124;53.394;-6.294;2022-09-09T10:51:55;100269.38;;;26.89;12.47
64698;BME280;51124;53.394;-6.294;2022-09-09T10:54:33;100267.38;;;26.73;12.33
64698;BME280;51124;53.394;-6.294;2022-09-09T10:56:55;100273.49;;;27.65;11.62
64698;BME280;51124;53.394;-6.294;2022-09-09T10:59:25;100270.86;;;27.20;11.83
64698;BME280;51124;53.394;-6.294;2022-09-09T11:01:53;100278.51;;;26.59;12.11
64698;BME280;51124;53.394;-6.294;2022-09-09T11:04:24;100280.38;;;27.43;12.06
64698;BME280;51124;53.394;-6.294;2022-09-09T11:06:52;100279.48;;;25.87;12.63
64698;BME280;51124;53.394;-6.294;2022-09-09T11:09:21;100284.21;;;26.29;12.59
64698;BME280;51124;53.394;-6.294;2022-09-09T11:11:51;100292.72;;;23.85;13.64
64698;BME280;51124;53.394;-6.294;2022-09-09T11:14:21;100291.96;;;24.64;14.11
64698;BME280;51124;53.394;-6.294;2022-09-09T11:16:50;100292.88;;;23.94;14.07
64698;BME280;51124;53.394;-6.294;2022-09-09T11:19:21;100299.59;;;21.68;15.16
64698;BME280;51124;53.394;-6.294;2022-09-09T11:21:49;100298.38;;;21.45;15.56
64698;BME280;51124;53.394;-6.294;2022-09-09T11:24:28;100299.14;;;22.71;14.63
64698;BME280;51124;53.394;-6.294;2022-09-09T11:26:55;100300.05;;;22.96;14.55
64698;BME280;51124;53.394;-6.294;2022-09-09T11:29:38;100306.20;;;18.92;15.22
64698;BME280;51124;53.394;-6.294;2022-09-09T11:32:03;100303.52;;;19.81;14.17
64698;BME280;51124;53.394;-6.294;2022-09-09T11:34:33;100305.47;;;20.14;13.76
64698;BME280;51124;53.394;-6.294;2022-09-09T11:37:00;100311.60;;;20.45;13.56
64698;BME280;51124;53.394;-6.294;2022-09-09T11:39:35;100312.36;;;20.73;13.01
64698;BME280;51124;53.394;-6.294;2022-09-09T11:41:51;100317.58;;;19.02;13.35
64698;BME280;51124;53.394;-6.294;2022-09-09T11:44:28;100319.88;;;19.31;13.60
64698;BME280;51124;53.394;-6.294;2022-09-09T11:46:52;100319.14;;;17.83;14.01
64698;BME280;51124;53.394;-6.294;2022-09-09T11:49:28;100316.31;;;18.11;13.90
64698;BME280;51124;53.394;-6.294;2022-09-09T11:51:53;100307.65;;;19.46;13.35
64698;BME280;51124;53.394;-6.294;2022-09-09T11:54:30;100315.66;;;19.53;13.26
64698;BME280;51124;53.394;-6.294;2022-09-09T11:56:54;100317.67;;;18.36;13.31
64698;BME280;51124;53.394;-6.294;2022-09-09T11:59:28;100318.47;;;18.92;13.26
64698;BME280;51124;53.394;-6.294;2022-09-09T12:01:55;100322.88;;;18.36;13.46
64698;BME280;51124;53.394;-6.294;2022-09-09T12:04:30;100321.87;;;18.67;13.18
64698;BME280;51124;53.394;-6.294;2022-09-09T12:06:46;100310.52;;;22.06;11.28
64698;BME280;51124;53.394;-6.294;2022-09-09T12:09:19;100313.66;;;23.43;10.71
64698;BME280;51124;53.394;-6.294;2022-09-09T12:11:45;100310.48;;;23.49;10.26
64698;BME280;51124;53.394;-6.294;2022-09-09T12:14:22;100315.16;;;23.82;10.42
64698;BME280;51124;53.394;-6.294;2022-09-09T12:16:46;100312.75;;;22.95;10.47
64698;BME280;51124;53.394;-6.294;2022-09-09T12:19:21;100316.35;;;23.52;10.07
64698;BME280;51124;53.394;-6.294;2022-09-09T12:21:51;100319.74;;;23.12;10.30
64698;BME280;51124;53.394;-6.294;2022-09-09T12:24:22;100326.70;;;23.71;10.34
64698;BME280;51124;53.394;-6.294;2022-09-09T12:26:56;100328.05;;;23.71;10.47
64698;BME280;51124;53.394;-6.294;2022-09-09T12:29:26;100329.09;;;22.71;10.69
64698;BME280;51124;53.394;-6.294;2022-09-09T12:31:56;100331.40;;;23.20;10.57
64698;BME280;51124;53.394;-6.294;2022-09-09T12:34:30;100341.51;;;18.67;12.43
64698;BME280;51124;53.394;-6.294;2022-09-09T12:37:00;100340.69;;;19.89;11.85
64698;BME280;51124;53.394;-6.294;2022-09-09T12:39:29;100338.61;;;20.82;11.79
64698;BME280;51124;53.394;-6.294;2022-09-09T12:41:54;100344.60;;;18.53;12.24
64698;BME280;51124;53.394;-6.294;2022-09-09T12:44:28;100342.78;;;18.21;12.70
64698;BME280;51124;53.394;-6.294;2022-09-09T12:47:02;100347.43;;;18.06;12.79
64698;BME280;51124;53.394;-6.294;2022-09-09T12:49:30;100351.48;;;17.92;12.84
64698;BME280;51124;53.394;-6.294;2022-09-09T12:51:54;100357.36;;;17.64;12.88
64698;BME280;51124;53.394;-6.294;2022-09-09T12:54:28;100358.11;;;17.79;13.29
64698;BME280;51124;53.394;-6.294;2022-09-09T12:57:02;100358.11;;;20.35;11.68
64698;BME280;51124;53.394;-6.294;2022-09-09T12:59:38;100357.47;;;22.95;10.64
64698;BME280;51124;53.394;-6.294;2022-09-09T13:02:02;100359.19;;;22.72;10.55
64698;BME280;51124;53.394;-6.294;2022-09-09T13:04:35;100354.70;;;23.28;10.12